Time;durP1;ratioP1;P1;durP2;ratioP2;P2;SDS_P1;SDS_P2;PMS_P1;PMS_P2;Temp;Humidity;BMP_temperature;BMP_pressure;BME280_temperature;BME280_humidity;BME280_pressure;Samples;Min_cycle;Max_cycle;Signal;HPM_P1;HPM_P2
2023/06/05 00:00:21;;;;;;;3.25;1.85;;;;;;;14.97;57.50;101489.63;4974169;28;20527;-62
2023/06/05 00:02:47;;;;;;;8.20;2.10;;;;;;;14.93;57.50;101490.53;4979210;28;20108;-62
2023/06/05 00:05:13;;;;;;;5.38;1.98;;;;;;;14.88;57.70;101496.69;4978422;28;20038;-62
2023/06/05 00:07:38;;;;;;;4.45;1.98;;;;;;;14.81;57.97;101495.91;4983349;28;20042;-62
2023/06/05 00:10:07;;;;;;;4.20;2.03;;;;;;;14.76;58.58;101499.47;4985281;28;20045;-62
2023/06/05 00:12:34;;;;;;;2.50;1.92;;;;;;;14.67;58.90;101497.84;4980767;28;20084;-62
2023/06/05 00:14:59;;;;;;;2.45;1.67;;;;;;;14.61;58.97;101505.75;4977986;28;20072;-62
2023/06/05 00:17:25;;;;;;;3.28;1.90;;;;;;;14.55;59.06;101508.41;4975809;28;20034;-63
2023/06/05 00:19:50;;;;;;;2.85;1.60;;;;;;;14.51;58.92;101510.19;4979735;28;20050;-62
2023/06/05 00:22:16;;;;;;;2.63;1.95;;;;;;;14.45;59.38;101510.31;4982584;28;20038;-63
2023/06/05 00:24:41;;;;;;;3.55;2.05;;;;;;;14.40;60.12;101521.63;4978570;28;20018;-62
2023/06/05 00:27:06;;;;;;;3.15;1.73;;;;;;;14.37;60.25;101513.81;4981092;28;20046;-62
2023/06/05 00:29:32;;;;;;;4.18;1.88;;;;;;;14.33;59.80;101504.34;4978828;28;20761;-63
2023/06/05 00:31:57;;;;;;;3.22;2.00;;;;;;;14.35;60.01;101513.84;4978878;28;20116;-63
2023/06/05 00:34:22;;;;;;;3.47;2.33;;;;;;;14.34;60.40;101506.06;4980382;28;20152;-63
2023/06/05 00:36:50;;;;;;;3.17;2.03;;;;;;;14.31;60.82;101514.75;4986685;28;20031;-63
2023/06/05 00:39:18;;;;;;;4.05;1.83;;;;;;;14.26;61.15;101508.75;4984124;28;20054;-63
2023/06/05 00:41:45;;;;;;;3.25;2.38;;;;;;;14.25;61.27;101509.63;4975678;28;20066;-63
2023/06/05 00:44:10;;;;;;;3.47;1.88;;;;;;;14.27;60.97;101507.03;4979182;28;20053;-63
2023/06/05 00:46:36;;;;;;;3.40;2.17;;;;;;;14.26;61.31;101508.75;4974897;28;20046;-63
2023/06/05 00:49:02;;;;;;;3.05;1.90;;;;;;;14.29;61.05;101497.44;4981044;28;20734;-63
2023/06/05 00:51:27;;;;;;;4.65;1.58;;;;;;;14.29;60.96;101498.31;4987873;28;20037;-63
2023/06/05 00:53:53;;;;;;;3.90;1.95;;;;;;;14.26;60.68;101500.09;4982321;28;20034;-63
2023/06/05 00:56:20;;;;;;;5.40;1.90;;;;;;;14.24;60.97;101491.44;4980090;28;20089;-63
2023/06/05 00:58:47;;;;;;;3.30;2.10;;;;;;;14.22;61.39;101501.03;4979409;28;20034;-63
2023/06/05 01:01:14;;;;;;;5.43;2.08;;;;;;;14.15;61.54;101508.03;4973700;28;20030;-63
2023/06/05 01:03:40;;;;;;;3.00;1.80;;;;;;;14.10;62.14;101505.47;4976909;28;20056;-69
2023/06/05 01:06:05;;;;;;;2.88;1.70;;;;;;;14.05;62.14;101507.25;4979814;28;20651;-69
2023/06/05 01:08:38;;;;;;;3.78;2.28;;;;;;;14.05;62.90;101512.47;4979027;28;20045;-69
2023/06/05 01:11:09;;;;;;;3.13;1.95;;;;;;;13.96;63.16;101511.69;4978567;28;20030;-69
2023/06/05 01:13:38;;;;;;;4.65;2.00;;;;;;;13.89;63.02;101517.84;4978577;28;20038;-69
2023/06/05 01:16:05;;;;;;;4.70;2.20;;;;;;;13.84;63.32;101506.59;4977954;28;20029;-69
2023/06/05 01:18:31;;;;;;;4.78;2.05;;;;;;;13.83;63.80;101510.09;4978643;28;20129;-69
2023/06/05 01:21:01;;;;;;;4.88;2.40;;;;;;;13.78;63.99;101510.13;4978846;28;20181;-69
2023/06/05 01:23:29;;;;;;;2.45;1.60;;;;;;;13.75;64.33;101506.69;4981125;28;20034;-69
2023/06/05 01:26:02;;;;;;;4.28;2.20;;;;;;;13.71;64.40;101495.47;4981649;28;20031;-70
2023/06/05 01:28:30;;;;;;;5.25;2.15;;;;;;;13.67;64.68;101492.91;4993094;28;20062;-69
2023/06/05 01:31:13;;;;;;;3.95;2.10;;;;;;;13.62;65.25;101497.31;4981902;28;20019;-69
2023/06/05 01:34:01;;;;;;;2.50;1.60;;;;;;;13.54;65.01;101505.16;4979560;28;20054;-69
2023/06/05 01:36:28;;;;;;;5.90;2.20;;;;;;;13.54;65.62;101502.56;4976133;28;20049;-69
2023/06/05 01:38:55;;;;;;;3.40;2.00;;;;;;;13.51;65.74;101498.25;4983467;28;20098;-68
2023/06/05 01:41:21;;;;;;;4.85;2.22;;;;;;;13.44;66.01;101498.34;4998563;28;20528;-68
2023/06/05 01:43:48;;;;;;;2.67;2.00;;;;;;;13.35;66.29;101490.63;4993752;28;20037;-69
2023/06/05 01:46:18;;;;;;;3.80;1.98;;;;;;;13.27;66.62;101495.84;4972590;28;20046;-69
2023/06/05 01:48:44;;;;;;;5.10;1.70;;;;;;;13.22;66.70;101488.97;4979683;28;20285;-69
2023/06/05 01:51:10;;;;;;;3.53;2.35;;;;;;;13.19;67.56;101495.06;4981310;28;20149;-68
2023/06/05 01:53:35;;;;;;;5.05;2.47;;;;;;;13.18;67.63;101487.31;4981244;28;20044;-69
2023/06/05 01:56:02;;;;;;;2.97;2.00;;;;;;;13.14;67.94;101485.59;4985810;28;20129;-69
2023/06/05 01:58:27;;;;;;;2.53;1.98;;;;;;;13.10;68.37;101491.66;4980838;28;20094;-69
2023/06/05 02:00:56;;;;;;;3.80;2.25;;;;;;;13.06;68.41;101483.03;4979381;28;20104;-69
2023/06/05 02:03:22;;;;;;;2.67;2.00;;;;;;;12.99;68.68;101473.56;4979596;28;20077;-69
2023/06/05 02:05:48;;;;;;;3.55;2.22;;;;;;;12.94;68.83;101472.69;4979163;28;20519;-69
2023/06/05 02:08:19;;;;;;;3.55;2.22;;;;;;;12.92;68.99;101477.91;4980362;28;20045;-69
2023/06/05 02:10:45;;;;;;;3.83;2.50;;;;;;;12.92;69.44;101475.31;4980766;28;20065;-69
2023/06/05 02:13:11;;;;;;;5.72;2.40;;;;;;;12.94;69.76;101478.75;4986374;28;20092;-69
2023/06/05 02:15:37;;;;;;;3.53;2.10;;;;;;;12.89;69.75;101475.34;4984827;28;20027;-69
2023/06/05 02:18:04;;;;;;;3.92;2.35;;;;;;;12.84;70.20;101473.66;4981881;28;20455;-69
2023/06/05 02:20:32;;;;;;;4.13;2.20;;;;;;;12.79;70.27;101470.22;4985184;28;20464;-69
2023/06/05 02:22:58;;;;;;;2.92;1.98;;;;;;;12.75;70.40;101473.69;4980285;28;20061;-69
2023/06/05 02:25:26;;;;;;;3.42;2.20;;;;;;;12.72;70.30;101466.81;4983119;28;20065;-69
2023/06/05 02:27:52;;;;;;;4.07;2.40;;;;;;;12.69;70.50;101460.78;4983184;28;20064;-69
2023/06/05 02:30:18;;;;;;;4.57;2.10;;;;;;;12.68;70.84;101470.28;4998113;28;20045;-69
2023/06/05 02:32:43;;;;;;;5.63;2.50;;;;;;;12.63;70.96;101466.00;4990062;28;20038;-69
2023/06/05 02:35:09;;;;;;;5.88;2.30;;;;;;;12.59;71.18;101466.88;4992956;28;20104;-69
2023/06/05 02:37:37;;;;;;;3.17;2.33;;;;;;;12.54;71.64;101471.22;4981368;28;20053;-69
2023/06/05 02:40:07;;;;;;;4.40;2.28;;;;;;;12.54;72.40;101472.09;4983153;28;20045;-68
2023/06/05 02:42:33;;;;;;;5.32;2.50;;;;;;;12.50;72.51;101465.19;4988136;28;20835;-69
2023/06/05 02:44:58;;;;;;;3.03;2.10;;;;;;;12.46;72.65;101466.09;4988996;28;20034;-68
2023/06/05 02:47:23;;;;;;;3.58;2.28;;;;;;;12.40;72.81;101461.81;4983167;28;20034;-69
2023/06/05 02:49:49;;;;;;;3.22;2.22;;;;;;;12.35;72.91;101463.53;4986404;28;20237;-69
2023/06/05 02:52:14;;;;;;;2.97;1.90;;;;;;;12.30;73.46;101460.09;4988464;28;20696;-69
2023/06/05 02:54:40;;;;;;;2.97;1.92;;;;;;;12.27;73.79;101462.72;4984530;28;20102;-69
2023/06/05 02:57:06;;;;;;;4.72;2.17;;;;;;;12.24;73.67;101462.72;4981574;28;20042;-70
2023/06/05 02:59:32;;;;;;;4.10;2.33;;;;;;;12.22;74.06;101458.41;4996051;28;20555;-70
2023/06/05 03:01:57;;;;;;;4.60;2.75;;;;;;;12.18;74.06;101452.38;4982572;28;20142;-69
2023/06/05 03:04:23;;;;;;;5.57;2.58;;;;;;;12.16;74.41;101455.84;4981515;28;20104;-69
2023/06/05 03:06:50;;;;;;;4.35;2.53;;;;;;;12.14;74.40;101453.25;4983629;28;20030;-69
2023/06/05 03:09:17;;;;;;;4.40;2.25;;;;;;;12.13;74.27;101454.13;4979242;28;20034;-69
2023/06/05 03:11:43;;;;;;;4.18;2.15;;;;;;;12.11;74.90;101455.84;4975614;28;20532;-69
2023/06/05 03:14:08;;;;;;;4.05;2.67;;;;;;;12.10;74.60;101451.56;4981902;28;20562;-69
2023/06/05 03:16:41;;;;;;;6.32;2.40;;;;;;;12.11;75.00;101455.84;4983558;28;20038;-68
2023/06/05 03:19:07;;;;;;;4.80;2.65;;;;;;;12.11;74.71;101460.19;4983673;28;20046;-68
2023/06/05 03:21:33;;;;;;;5.82;2.60;;;;;;;12.13;74.79;101459.31;4983785;28;20027;-69
2023/06/05 03:23:58;;;;;;;3.67;2.45;;;;;;;12.13;75.06;101459.31;4982266;28;20422;-69
2023/06/05 03:26:25;;;;;;;3.63;2.47;;;;;;;12.12;75.23;101465.34;4985257;28;20052;-69
2023/06/05 03:28:51;;;;;;;5.72;2.42;;;;;;;12.13;75.47;101454.13;4983256;28;20609;-69
2023/06/05 03:31:17;;;;;;;6.40;2.67;;;;;;;12.13;75.41;101456.72;4978980;28;20042;-69
2023/06/05 03:33:42;;;;;;;5.53;2.80;;;;;;;12.15;75.17;101462.75;4979377;28;20057;-69
2023/06/05 03:36:08;;;;;;;4.90;2.85;;;;;;;12.18;75.14;101462.75;4977520;28;20054;-69
2023/06/05 03:38:34;;;;;;;3.42;2.70;;;;;;;12.21;75.46;101459.28;4985724;28;20042;-69
2023/06/05 03:40:59;;;;;;;3.40;2.08;;;;;;;12.22;75.27;101464.47;4985725;28;20437;-69
2023/06/05 03:43:24;;;;;;;4.90;2.70;;;;;;;12.25;75.65;101461.88;4982290;28;20642;-69
2023/06/05 03:45:51;;;;;;;5.72;3.25;;;;;;;12.26;75.36;101455.78;4985301;28;20789;-69
2023/06/05 03:48:19;;;;;;;5.75;3.03;;;;;;;12.26;75.45;101455.78;5006904;28;20415;-69
2023/06/05 03:50:46;;;;;;;4.07;2.42;;;;;;;12.27;75.58;101460.13;4977660;28;20039;-69
2023/06/05 03:53:13;;;;;;;5.07;2.58;;;;;;;12.28;75.84;101456.66;4979088;28;20455;-69
2023/06/05 03:55:45;;;;;;;4.38;2.83;;;;;;;12.30;75.41;101459.25;4981139;28;20038;-69
2023/06/05 03:58:15;;;;;;;4.88;3.03;;;;;;;12.32;75.08;101460.09;4979746;28;20105;-69
2023/06/05 04:00:45;;;;;;;3.58;2.80;;;;;;;12.33;75.45;101465.28;4974857;28;20031;-69
2023/06/05 04:03:11;;;;;;;6.28;2.63;;;;;;;12.38;75.48;101467.84;4981608;28;20109;-69
2023/06/05 04:05:38;;;;;;;4.63;2.60;;;;;;;12.38;75.67;101460.94;4977915;28;20125;-69
2023/06/05 04:08:07;;;;;;;5.28;2.65;;;;;;;12.43;75.39;101461.75;4976753;28;20046;-69
2023/06/05 04:10:32;;;;;;;2.90;2.30;;;;;;;12.49;75.21;101460.91;4977455;28;20049;-69
2023/06/05 04:12:58;;;;;;;3.92;2.67;;;;;;;12.53;75.19;101452.19;4979323;28;20030;-69
2023/06/05 04:15:23;;;;;;;5.93;2.90;;;;;;;12.59;74.87;101462.53;4980350;28;20041;-69
2023/06/05 04:17:49;;;;;;;4.15;2.72;;;;;;;12.63;74.73;101464.25;4977962;28;20038;-69
2023/06/05 04:20:15;;;;;;;3.67;3.00;;;;;;;12.68;74.55;101461.63;4978732;28;20041;-68
2023/06/05 04:22:45;;;;;;;4.43;2.75;;;;;;;12.76;74.51;101455.53;4981460;28;20047;-69
2023/06/05 04:25:12;;;;;;;3.95;2.45;;;;;;;12.82;74.01;101455.47;4981046;28;20093;-69
2023/06/05 04:27:42;;;;;;;7.18;2.92;;;;;;;12.87;74.15;101455.47;4981694;28;20030;-69
2023/06/05 04:30:10;;;;;;;5.13;2.95;;;;;;;12.89;74.12;101467.56;4980290;28;20034;-69
2023/06/05 04:32:37;;;;;;;5.47;3.00;;;;;;;12.94;73.88;101468.38;4979400;28;20053;-70
2023/06/05 04:35:08;;;;;;;7.63;2.70;;;;;;;12.99;73.63;101453.69;4978959;28;20043;-69
2023/06/05 04:37:35;;;;;;;5.80;2.72;;;;;;;13.06;73.21;101457.06;4975882;28;20503;-69
2023/06/05 04:40:05;;;;;;;5.53;2.88;;;;;;;13.11;73.03;101446.69;4977312;28;20512;-66
2023/06/05 04:42:31;;;;;;;5.43;3.03;;;;;;;13.15;72.58;101451.81;4978977;28;20153;-69
2023/06/05 04:45:03;;;;;;;4.85;2.92;;;;;;;13.20;71.91;101455.25;4978776;28;20045;-69
2023/06/05 04:47:30;;;;;;;5.55;3.15;;;;;;;13.25;71.99;101452.59;4977050;28;20145;-69
2023/06/05 04:49:58;;;;;;;5.18;2.90;;;;;;;13.28;71.53;101453.44;4977248;28;20031;-69
2023/06/05 04:52:24;;;;;;;6.30;3.08;;;;;;;13.30;71.24;101446.50;4978916;28;20061;-69
2023/06/05 04:54:49;;;;;;;4.65;3.05;;;;;;;13.35;70.77;101446.47;4976667;28;20148;-68
2023/06/05 04:57:16;;;;;;;5.15;3.35;;;;;;;13.38;70.31;101439.53;4974332;28;20886;-69
2023/06/05 04:59:42;;;;;;;6.05;2.50;;;;;;;13.44;70.10;101447.22;4973087;28;20074;-69
2023/06/05 05:02:08;;;;;;;3.90;2.88;;;;;;;13.48;69.95;101445.47;4971382;28;20035;-69
2023/06/05 05:04:33;;;;;;;5.85;3.03;;;;;;;13.51;69.52;101440.25;4979768;28;20144;-69
2023/06/05 05:07:00;;;;;;;5.78;2.83;;;;;;;13.55;69.40;101442.81;4979830;28;20038;-69
2023/06/05 05:09:27;;;;;;;4.13;2.78;;;;;;;13.60;69.37;101441.88;4976161;28;20077;-68
2023/06/05 05:11:52;;;;;;;4.10;2.60;;;;;;;13.67;68.80;101438.38;5010606;28;20472;-69
2023/06/05 05:14:18;;;;;;;4.93;2.90;;;;;;;13.73;68.49;101428.78;4974886;28;20108;-64
2023/06/05 05:16:43;;;;;;;7.63;3.30;;;;;;;13.80;67.92;101417.41;4975421;28;20141;-64
2023/06/05 05:19:08;;;;;;;5.15;3.05;;;;;;;13.86;67.34;101417.34;4978357;28;20466;-63
2023/06/05 05:21:34;;;;;;;4.18;2.80;;;;;;;13.92;67.33;101419.06;4984836;28;20041;-64
2023/06/05 05:24:00;;;;;;;3.92;2.85;;;;;;;13.96;67.33;101424.19;4975796;28;21088;-63
2023/06/05 05:26:26;;;;;;;6.43;3.42;;;;;;;14.04;66.60;101418.88;4979783;28;20153;-63
2023/06/05 05:28:51;;;;;;;6.13;2.70;;;;;;;14.11;66.55;101420.53;4960019;28;20511;-63
2023/06/05 05:31:17;;;;;;;6.07;3.10;;;;;;;14.16;67.21;101425.69;4973335;28;20030;-64
2023/06/05 05:33:43;;;;;;;4.90;3.38;;;;;;;14.23;67.39;101432.50;4974977;28;20030;-64
2023/06/05 05:36:08;;;;;;;5.30;2.83;;;;;;;14.25;66.70;101423.81;4977234;28;20081;-64
2023/06/05 05:38:34;;;;;;;4.47;2.97;;;;;;;14.32;66.75;101419.41;4976419;28;20043;-63
2023/06/05 05:40:59;;;;;;;4.07;2.65;;;;;;;14.39;66.43;101413.28;4966091;28;20046;-64
2023/06/05 05:43:25;;;;;;;3.33;2.67;;;;;;;14.43;65.72;101409.72;4958934;28;20046;-63
2023/06/05 05:45:51;;;;;;;6.15;3.13;;;;;;;14.46;65.76;101418.34;4961499;28;20755;-64
2023/06/05 05:48:17;;;;;;;6.57;3.30;;;;;;;14.52;64.95;101396.59;4958689;28;20038;-64
2023/06/05 05:50:42;;;;;;;5.28;3.10;;;;;;;14.58;63.71;101391.31;4959250;28;20042;-64
2023/06/05 05:53:08;;;;;;;6.65;3.20;;;;;;;14.67;63.68;101396.38;4963012;28;20153;-64
2023/06/05 05:55:33;;;;;;;6.30;2.72;;;;;;;14.77;63.69;101397.09;4960535;28;20129;-65
2023/06/05 05:57:58;;;;;;;8.30;2.75;;;;;;;14.87;63.58;101406.50;4960701;28;20031;-64
2023/06/05 06:00:24;;;;;;;8.13;3.05;;;;;;;14.93;61.87;101381.22;4979917;28;20034;-63
2023/06/05 06:02:52;;;;;;;5.07;2.30;;;;;;;15.02;60.36;101377.59;4960643;28;20416;-63
2023/06/05 06:05:18;;;;;;;7.15;2.28;;;;;;;15.06;59.62;101367.13;4961934;28;20043;-63
2023/06/05 06:07:43;;;;;;;5.07;2.97;;;;;;;15.11;58.68;101370.47;4957648;28;20097;-64
2023/06/05 06:10:11;;;;;;;5.72;2.85;;;;;;;15.16;58.78;101378.22;4960429;28;20038;-63
2023/06/05 06:12:37;;;;;;;4.03;2.63;;;;;;;15.23;58.40;101372.88;4963872;28;20085;-63
2023/06/05 06:15:04;;;;;;;4.68;2.40;;;;;;;15.29;58.23;101376.25;4963590;28;20034;-64
2023/06/05 06:17:29;;;;;;;5.57;2.90;;;;;;;15.35;58.57;101387.41;4962784;28;20069;-64
2023/06/05 06:19:55;;;;;;;5.43;2.45;;;;;;;15.42;58.32;101380.38;4958711;28;20126;-63
2023/06/05 06:22:20;;;;;;;5.20;3.15;;;;;;;15.47;57.81;101384.59;4963123;28;20046;-63
2023/06/05 06:24:46;;;;;;;6.03;2.78;;;;;;;15.55;58.20;101382.69;4959473;28;20085;-64
2023/06/05 06:27:12;;;;;;;5.32;2.95;;;;;;;15.61;58.38;101395.63;4964929;28;20038;-64
2023/06/05 06:29:47;;;;;;;7.13;3.08;;;;;;;15.71;59.08;101407.63;4956144;28;20097;-64
2023/06/05 06:32:12;;;;;;;7.15;2.65;;;;;;;15.81;59.18;101410.06;4959373;28;20042;-63
2023/06/05 06:34:38;;;;;;;5.88;2.25;;;;;;;15.91;59.72;101416.81;4962395;28;20046;-64
2023/06/05 06:37:04;;;;;;;4.85;2.75;;;;;;;16.00;59.64;101414.88;4960521;28;20105;-64
2023/06/05 06:39:29;;;;;;;4.93;2.70;;;;;;;16.08;59.79;101425.16;4960121;28;20034;-63
2023/06/05 06:41:55;;;;;;;5.78;2.60;;;;;;;16.13;59.13;101410.25;4958424;28;20046;-64
2023/06/05 06:44:22;;;;;;;4.22;2.55;;;;;;;16.20;59.92;101424.91;4975768;28;20050;-64
2023/06/05 06:46:47;;;;;;;5.28;3.08;;;;;;;16.30;60.38;101429.03;4956972;28;20440;-64
2023/06/05 06:49:12;;;;;;;6.70;3.20;;;;;;;16.38;60.02;101421.03;4962597;28;20073;-64
2023/06/05 06:51:38;;;;;;;8.25;2.85;;;;;;;16.44;59.42;101415.69;4982749;28;20156;-64
2023/06/05 06:54:03;;;;;;;5.60;2.60;;;;;;;16.52;58.85;101412.03;4988318;28;20546;-64
2023/06/05 06:56:29;;;;;;;4.90;2.70;;;;;;;16.61;58.20;101396.16;4975705;28;20081;-64
2023/06/05 06:58:55;;;;;;;6.15;2.75;;;;;;;16.70;58.18;101406.38;4991048;28;20046;-64
2023/06/05 07:01:20;;;;;;;5.32;2.45;;;;;;;16.72;56.80;101385.44;4978985;28;20050;-64
2023/06/05 07:03:46;;;;;;;5.05;2.50;;;;;;;16.78;56.79;101382.72;4973630;28;20045;-63
2023/06/05 07:06:12;;;;;;;4.55;2.70;;;;;;;16.86;56.90;101389.47;4975126;28;20030;-64
2023/06/05 07:08:37;;;;;;;4.80;2.30;;;;;;;16.93;56.63;101389.31;4981789;28;20134;-64
2023/06/05 07:11:03;;;;;;;6.80;2.78;;;;;;;17.01;56.60;101397.84;4978545;28;20038;-63
2023/06/05 07:13:29;;;;;;;4.68;3.00;;;;;;;17.03;56.78;101396.91;4980961;28;20042;-64
2023/06/05 07:15:55;;;;;;;5.30;2.65;;;;;;;17.15;55.55;101377.47;4980381;28;20061;-64
2023/06/05 07:18:20;;;;;;;4.35;2.85;;;;;;;17.20;54.59;101368.59;4977040;28;20121;-63
2023/06/05 07:20:46;;;;;;;4.65;2.63;;;;;;;17.21;54.83;101370.34;4982864;28;20042;-63
2023/06/05 07:23:13;;;;;;;5.20;2.28;;;;;;;17.34;54.96;101386.53;4988644;28;20184;-64
2023/06/05 07:25:38;;;;;;;3.65;2.30;;;;;;;17.39;53.72;101361.97;4987840;28;20396;-63
2023/06/05 07:28:11;;;;;;;5.32;1.98;;;;;;;17.46;52.83;101348.75;4996757;28;20039;-64
2023/06/05 07:30:37;;;;;;;6.60;2.47;;;;;;;17.55;52.38;101357.19;4983195;28;20054;-64
2023/06/05 07:33:03;;;;;;;7.95;2.47;;;;;;;17.68;52.41;101368.19;4983137;28;20042;-63
2023/06/05 07:35:28;;;;;;;2.88;1.83;;;;;;;17.73;51.45;101346.22;4979558;28;20260;-64
2023/06/05 07:37:54;;;;;;;5.25;2.25;;;;;;;17.82;50.76;101335.50;4973963;28;20575;-64
2023/06/05 07:40:20;;;;;;;4.13;2.20;;;;;;;17.92;50.62;101337.00;4962306;28;20125;-64
2023/06/05 07:42:46;;;;;;;6.85;2.10;;;;;;;18.02;50.05;101339.34;4958857;28;20153;-63
2023/06/05 07:45:11;;;;;;;7.75;1.83;;;;;;;18.14;49.41;101331.97;4962638;28;20170;-63
2023/06/05 07:47:36;;;;;;;3.53;2.30;;;;;;;18.22;48.55;101331.75;4956207;28;20047;-64
2023/06/05 07:50:06;;;;;;;4.88;2.10;;;;;;;18.30;48.51;101338.44;4960106;28;20151;-63
2023/06/05 07:52:32;;;;;;;4.40;2.33;;;;;;;18.39;49.09;101347.78;4965517;28;20046;-64
2023/06/05 07:54:57;;;;;;;6.75;2.42;;;;;;;18.45;50.77;101361.53;4984406;28;20061;-64
2023/06/05 07:57:23;;;;;;;4.85;2.20;;;;;;;18.55;48.06;101325.47;4966663;28;20126;-64
2023/06/05 07:59:50;;;;;;;4.93;2.30;;;;;;;18.56;47.80;101331.53;4963048;28;21086;-64
2023/06/05 08:02:18;;;;;;;8.77;2.58;;;;;;;18.70;47.10;101334.56;4969811;28;20058;-64
2023/06/05 08:04:44;;;;;;;8.65;2.42;;;;;;;18.80;47.52;101342.06;4972112;28;20128;-65
2023/06/05 08:07:10;;;;;;;6.88;2.38;;;;;;;18.89;46.68;101326.06;4957270;28;20789;-64
2023/06/05 08:09:36;;;;;;;4.00;2.00;;;;;;;19.00;47.37;101341.41;4959671;28;20019;-63
2023/06/05 08:12:02;;;;;;;7.38;2.35;;;;;;;19.06;46.98;101322.88;4962628;28;20043;-63
2023/06/05 08:14:28;;;;;;;5.60;2.35;;;;;;;19.13;45.74;101305.19;4959899;28;20520;-64
2023/06/05 08:16:55;;;;;;;5.32;1.95;;;;;;;19.21;45.37;101316.25;4974500;28;20089;-65
2023/06/05 08:19:20;;;;;;;5.82;2.15;;;;;;;19.29;44.98;101308.97;4987145;28;20053;-65
2023/06/05 08:21:46;;;;;;;6.53;2.25;;;;;;;19.47;44.94;101318.81;4966960;28;20030;-63
2023/06/05 08:24:11;;;;;;;3.90;1.88;;;;;;;19.49;44.84;101316.97;4960984;28;20152;-64
2023/06/05 08:26:37;;;;;;;6.20;2.22;;;;;;;19.59;45.13;101319.19;4987781;28;20082;-64
2023/06/05 08:29:02;;;;;;;3.53;1.98;;;;;;;19.71;44.82;101322.31;4954348;28;20043;-65
2023/06/05 08:31:28;;;;;;;3.17;2.08;;;;;;;19.75;43.15;101293.28;4964123;28;20041;-64
2023/06/05 08:33:53;;;;;;;4.05;1.90;;;;;;;19.72;43.41;101309.13;4980889;28;20034;-65
2023/06/05 08:36:19;;;;;;;7.50;2.55;;;;;;;19.77;42.92;101303.72;4960978;28;20092;-64
2023/06/05 08:38:44;;;;;;;6.40;2.40;;;;;;;19.87;43.31;101303.34;4961079;28;20038;-63
2023/06/05 08:41:10;;;;;;;11.55;1.98;;;;;;;19.86;43.49;101306.03;4961269;28;20046;-63
2023/06/05 08:43:37;;;;;;;6.60;1.80;;;;;;;19.97;43.86;101315.19;4962965;28;20429;-63
2023/06/05 08:46:05;;;;;;;5.05;2.03;;;;;;;20.12;44.20;101325.13;4957730;28;20097;-63
2023/06/05 08:48:34;;;;;;;5.40;2.15;;;;;;;20.22;43.32;101303.72;4955148;28;20045;-63
2023/06/05 08:51:00;;;;;;;6.57;2.00;;;;;;;20.22;43.26;101311.59;4961146;28;20027;-63
2023/06/05 08:53:32;;;;;;;5.60;2.10;;;;;;;20.15;43.83;101313.63;4959978;28;20043;-63
2023/06/05 08:55:57;;;;;;;5.53;2.10;;;;;;;20.16;43.43;101303.06;4968536;28;20447;-63
2023/06/05 08:58:23;;;;;;;2.90;2.00;;;;;;;20.28;43.64;101309.59;4973165;28;20039;-63
2023/06/05 09:00:49;;;;;;;1.98;1.50;;;;;;;20.43;44.07;101308.13;4958375;28;20053;-63
2023/06/05 09:03:18;;;;;;;4.82;2.45;;;;;;;20.62;43.78;101307.34;4964096;28;20805;-63
2023/06/05 09:05:43;;;;;;;3.70;2.20;;;;;;;20.79;44.02;101303.16;4958459;28;20129;-63
2023/06/05 09:08:09;;;;;;;4.03;2.10;;;;;;;20.88;42.64;101287.88;4955226;28;20050;-64
2023/06/05 09:10:34;;;;;;;4.15;2.08;;;;;;;20.97;42.76;101290.13;4958260;28;20126;-63
2023/06/05 09:13:03;;;;;;;5.45;2.40;;;;;;;20.99;43.08;101298.78;4959171;28;20042;-63
2023/06/05 09:15:30;;;;;;;6.57;2.42;;;;;;;21.11;42.88;101289.50;4959748;28;20146;-63
2023/06/05 09:18:22;;;;;;;4.93;2.08;;;;;;;21.17;44.08;101310.28;4951471;28;20035;-63
2023/06/05 09:20:47;;;;;;;5.35;2.03;;;;;;;21.22;43.33;101296.00;4972719;28;20043;-64
2023/06/05 09:23:28;;;;;;;5.60;2.00;;;;;;;21.31;43.58;101291.28;4966997;28;20047;-63
2023/06/05 09:25:56;;;;;;;4.57;2.25;;;;;;;21.36;42.43;101284.03;4958886;28;20027;-62
2023/06/05 09:28:22;;;;;;;3.78;2.33;;;;;;;21.35;41.38;101275.28;4956211;28;20117;-63
2023/06/05 09:30:55;;;;;;;5.03;2.35;;;;;;;21.49;41.75;101272.88;4986361;28;20563;-62
2023/06/05 09:33:20;;;;;;;7.50;2.30;;;;;;;21.57;41.72;101272.59;4961184;28;20057;-63
2023/06/05 09:35:46;;;;;;;7.40;2.25;;;;;;;21.73;40.99;101266.53;4954756;28;20035;-64
2023/06/05 09:38:27;;;;;;;4.07;2.25;;;;;;;21.87;40.01;101255.38;4959184;28;20412;-63
2023/06/05 09:40:53;;;;;;;3.08;1.90;;;;;;;21.97;39.68;101258.44;4956784;28;20039;-64
2023/06/05 09:43:22;;;;;;;5.93;1.90;;;;;;;22.05;39.42;101254.50;4957380;28;20041;-64
2023/06/05 09:45:48;;;;;;;6.80;2.13;;;;;;;22.27;40.19;101275.38;4967572;28;20535;-64
2023/06/05 09:48:14;;;;;;;4.07;2.20;;;;;;;22.38;40.38;101270.50;4957137;28;20042;-65
2023/06/05 09:50:40;;;;;;;3.88;2.40;;;;;;;22.55;39.22;101251.19;4971116;28;20141;-64
2023/06/05 09:53:08;;;;;;;6.18;2.40;;;;;;;22.63;38.56;101249.03;4970923;28;20045;-63
2023/06/05 09:55:34;;;;;;;5.10;2.22;;;;;;;22.80;39.17;101264.81;4959547;28;20775;-64
2023/06/05 09:58:11;;;;;;;5.25;2.35;;;;;;;22.80;38.37;101247.22;4958964;28;20061;-63
2023/06/05 10:00:39;;;;;;;4.82;2.55;;;;;;;22.68;39.00;101261.03;4974820;28;20075;-63
2023/06/05 10:03:10;;;;;;;5.30;2.25;;;;;;;22.85;38.62;101262.84;4977351;28;20038;-63
2023/06/05 10:05:38;;;;;;;3.53;2.08;;;;;;;22.95;38.96;101256.13;4980134;28;20121;-63
2023/06/05 10:08:05;;;;;;;10.77;2.10;;;;;;;23.04;38.85;101255.66;4975927;28;20775;-64
2023/06/05 10:10:31;;;;;;;4.63;2.50;;;;;;;22.81;38.18;101250.72;4977752;28;20129;-62
2023/06/05 10:12:58;;;;;;;4.15;2.40;;;;;;;23.06;39.20;101255.59;4978727;28;20080;-63
2023/06/05 10:15:25;;;;;;;4.07;2.10;;;;;;;23.19;38.57;101254.91;4977123;28;20085;-62
2023/06/05 10:17:50;;;;;;;9.75;2.35;;;;;;;23.33;37.78;101239.19;4976844;28;20045;-64
2023/06/05 10:20:16;;;;;;;3.55;2.35;;;;;;;23.51;37.69;101237.38;4979981;28;20042;-63
2023/06/05 10:22:43;;;;;;;4.03;2.00;;;;;;;23.54;37.41;101245.09;4980677;28;20039;-64
2023/06/05 10:25:12;;;;;;;5.25;2.10;;;;;;;23.62;37.51;101242.03;4976829;28;20491;-64
2023/06/05 10:27:48;;;;;;;5.65;2.42;;;;;;;23.76;37.41;101250.91;4980729;28;20069;-64
2023/06/05 10:30:50;;;;;;;6.03;2.50;;;;;;;23.91;36.46;101230.72;4976366;28;20530;-64
2023/06/05 10:33:37;;;;;;;11.55;2.53;;;;;;;23.97;36.91;101238.31;4976782;28;20061;-64
2023/06/05 10:36:32;;;;;;;5.85;2.05;;;;;;;23.97;36.62;101231.25;4976801;28;20042;-63
2023/06/05 10:39:00;;;;;;;6.18;2.10;;;;;;;24.05;35.92;101222.91;4973945;28;20632;-63
2023/06/05 10:41:25;;;;;;;5.10;2.30;;;;;;;24.04;36.23;101226.50;4982936;28;20054;-64
2023/06/05 10:43:55;;;;;;;4.38;2.00;;;;;;;24.25;36.26;101229.69;4977347;28;20735;-64
2023/06/05 10:46:26;;;;;;;4.15;2.10;;;;;;;24.17;35.70;101227.47;4976756;28;20054;-64
2023/06/05 10:49:04;;;;;;;4.10;1.80;;;;;;;24.26;35.59;101224.31;4978891;28;20530;-63
2023/06/05 10:51:37;;;;;;;4.40;2.03;;;;;;;24.42;35.28;101221.63;5010308;28;20125;-63
2023/06/05 10:54:04;;;;;;;5.78;2.58;;;;;;;24.58;35.37;101211.84;4980013;28;20146;-64
2023/06/05 10:56:52;;;;;;;5.40;1.90;;;;;;;24.75;34.11;101211.75;4983424;28;20035;-62
2023/06/05 10:59:22;;;;;;;4.43;2.00;;;;;;;24.82;34.16;101217.50;4974121;28;20038;-62
2023/06/05 11:02:06;;;;;;;4.35;2.00;;;;;;;24.74;34.27;101215.31;4983177;28;20096;-63
2023/06/05 11:04:46;;;;;;;4.60;2.13;;;;;;;24.84;33.93;101220.91;4979730;28;20046;-63
2023/06/05 11:07:30;;;;;;;2.92;1.70;;;;;;;24.95;34.02;101207.88;4972306;28;20065;-62
2023/06/05 11:10:01;;;;;;;3.90;2.22;;;;;;;24.88;33.23;101209.19;4976884;28;20026;-63
2023/06/05 11:12:47;;;;;;;3.80;2.15;;;;;;;25.11;32.53;101195.44;4981481;28;20046;-63
2023/06/05 11:15:14;;;;;;;3.63;2.33;;;;;;;25.32;32.25;101199.41;4977960;28;20104;-63
2023/06/05 11:17:44;;;;;;;6.97;2.60;;;;;;;25.56;31.64;101191.75;4971302;28;20780;-63
2023/06/05 11:20:26;;;;;;;5.10;2.10;;;;;;;25.45;31.77;101202.13;4975563;28;20129;-64
2023/06/05 11:22:57;;;;;;;6.40;2.38;;;;;;;25.64;33.23;101218.56;4988382;28;20097;-63
2023/06/05 11:25:26;;;;;;;3.20;1.80;;;;;;;26.05;33.19;101224.69;4985745;28;20042;-63